Flight Track Log - Related Links

Times and Time Zones

All times are in EDT time to prevent confusion due to time zone crossing. See the EJA396 flight status page for this flight to view local times or setup timezone preferences in your user account.


Time Position Orientation Groundspeed Altitude Reporting Facility
EDT Latitude Longitude Course Direction KTS MPH feet Rate Location/Type
Wed 05:03:24 PM 41.2236 -70.2047 258° West 222 255 8,600  Level Boston Center
Wed 05:04:22 PM 41.2647 -70.2833 305° West 221 254 13,100 4,084 Climbing Boston Center
Wed 05:05:23 PM 41.3058 -70.3564 307° West 234 269 16,700 2,777 Climbing Boston Center
Wed 05:06:23 PM 41.3364 -70.4386 296° West 265 305 18,700 2,420 Climbing Boston Center
Wed 05:07:22 PM 41.3889 -70.5753 297° West 329 379 21,500 1,664 Climbing Boston Center
Wed 05:08:22 PM 41.4300 -70.6708 300° West 355 409 22,000 248 Climbing Boston Center
Wed 05:09:23 PM 41.4778 -70.7997 296° West 360 414 22,000  Level Boston Center
Wed 05:10:23 PM 41.5144 -70.8931 298° West 360 414 22,000  Level Boston Center
Wed 05:11:24 PM 41.5706 -71.0361 298° West 360 414 22,000  Level Boston Center
Wed 05:12:24 PM 41.6178 -71.1517 299° West 360 414 22,000  Level Boston Center
Wed 05:13:22 PM 41.6608 -71.2675 296° West 360 414 22,000  Level Boston Center
Wed 05:14:22 PM 41.7078 -71.3861 298° West 360 414 22,000  Level Boston Center
Wed 05:15:23 PM 41.7503 -71.4772 302° West 360 414 22,000  Level Boston Center
Wed 05:16:23 PM 41.8158 -71.5989 306° West 354 407 22,000  Level Boston Center
Wed 05:17:24 PM 41.8769 -71.7069 307° West 349 402 22,000 -50 Level Boston Center
Wed 05:18:22 PM 41.9361 -71.8122 307° West 354 407 21,900 -807 Descending Boston Center
Wed 05:19:23 PM 41.9761 -71.9292 295° West 349 402 20,400 -1,587 Descending Boston Center
Wed 05:20:23 PM 42.0081 -72.0658 288° West 349 402 18,700 -1,500 Descending Boston Center
Wed 05:21:23 PM 42.0333 -72.1772 287° West 349 402 17,400 -1,339 Descending Boston Center
Wed 05:22:24 PM 42.0669 -72.3142 288° West 349 402 16,000 -694 Descending Boston Center
Wed 05:23:24 PM 42.0919 -72.4233 287° West 343 395 16,000  Level Boston Center
Wed 05:24:22 PM 42.1231 -72.5519 288° West 343 395 16,000  Level Boston Center
Wed 05:25:24 PM 42.1500 -72.6614 288° West 343 395 16,000  Level Boston Center
Wed 05:26:24 PM 42.1581 -72.7872 275° West 336 387 16,000  Level Boston Center
Wed 05:27:22 PM 42.1492 -72.9244 265° West 331 381 16,000  Level Boston Center
Wed 05:28:23 PM 42.1403 -73.0478 264° West 331 381 16,000  Level Boston Center
Wed 05:29:24 PM 42.1333 -73.1764 266° West 331 381 16,000  Level Boston Center
Wed 05:30:22 PM 42.1242 -73.2967 264° West 337 388 16,000  Level Boston Center
Wed 05:31:23 PM 42.1147 -73.4142 264° West 343 395 16,000  Level Boston Center
Wed 05:32:23 PM 42.1053 -73.5369 264° West 343 395 16,000 -50 Level Boston Center
Wed 05:33:23 PM 42.0958 -73.6656 264° West 348 400 15,900 -50 Descending Boston Center
Wed 05:34:24 PM 42.0858 -73.7997 264° West 343 395 15,900  Level Boston Center
Wed 05:35:24 PM 42.0783 -73.9142 265° West 343 395 15,900  Level Boston Center
Wed 05:36:22 PM 42.0658 -74.0508 263° West 348 400 15,900  Level Boston Center
Wed 05:38:23 PM 41.9239 -74.2064 219° Southwest 321 369 15,900 -567 Level Boston Center
Wed 05:39:22 PM 41.8503 -74.2600 208° Southwest 339 390 14,200 -1,815 Descending Boston Center
Wed 05:40:22 PM 41.7578 -74.3075 201° Southwest 339 390 12,300 -1,785 Descending Boston Center
Wed 05:41:23 PM 41.6781 -74.3356 195° South 325 374 10,600 -1,770 Descending Boston Center
Wed 05:42:24 PM 41.6022 -74.3861 207° Southwest 290 334 8,700 -1,636 Descending Boston Center
Wed 05:43:24 PM 41.5428 -74.4344 211° Southwest 278 320 7,300 -893 Descending Boston Center
Wed 05:44:25 PM 41.4731 -74.4903 211° Southwest 278 320 6,900 -446 Descending Boston Center
Wed 05:46:19 PM 41.3500 -74.6000 214° Southwest 266 306 6,000 -379 Descending New York TRACON
Wed 05:47:19 PM 41.2833 -74.6167 191° South 271 312 5,800 -905 Descending New York TRACON
Wed 05:48:25 PM 41.2167 -74.5500 143° Southeast 258 297 4,100 -1,400 Descending New York TRACON
Wed 05:49:19 PM 41.1667 -74.5000 143° Southeast 254 292 3,000 -579 Descending New York TRACON
Wed 05:50:19 PM 41.1167 -74.4500 143° Southeast 220 253 3,000 50 Level New York TRACON
Wed 05:51:19 PM 41.0667 -74.4333 166° South 218 251 3,100 50 Climbing New York TRACON
Wed 05:52:19 PM 41.0167 -74.3833 143° Southeast 213 245 3,100 -450 Level New York TRACON
Wed 05:53:19 PM 40.9833 -74.3167 124° Southeast 219 252 2,200 -476 Descending New York TRACON
Wed 05:54:25 PM 40.9333 -74.3333 194° South 198 228 2,100 -48 Descending New York TRACON
Wed 05:55:25 PM 40.8833 -74.3500 194° South 176 203 2,100 -350 Level New York TRACON
Wed 05:56:25 PM 40.8500 -74.3667 201° Southwest 114 131 1,400 -632 Descending New York TRACON
Wed 05:57:19 PM 40.8333 -74.3833 217° Southwest 112 129 900 -556 Descending New York TRACON

Login

Don't have an account? Register now (free) for customized features, flight alerts, and more!